Verda, Louisiana
Current Conditions -  °F | °C
As of 10:15 PM on Wednesday 28 Jan 2015 (Local Time) from KIER Reporting Station
Clear Clear  
Wind Chill: 57°   Ceiling: Unl
Heat Index: 57°   Visibility: 10mi
Dew Point: 44°   Wind: 8mph
Humidity: 62%   Direction: 170°S
Pressure: 30.16"   Gusts: NA
Location:  31.7°N, 92.77°W
Report Text: KIER 290415Z AUTO 17007KT 10SM CLR 14/07 A3016 RMK AO2 T01370065
Loading
Personal Weather Stations






























Interactive Weather Map New forecast layout! Learn more

10-Day Weather Forecast

Advertisements
Track Severe Weather on mobile